Time;durP1;ratioP1;P1;durP2;ratioP2;P2;SDS_P1;SDS_P2;PMS_P1;PMS_P2;Temp;Humidity;BMP_temperature;BMP_pressure;BME280_temperature;BME280_humidity;BME280_pressure;Samples;Min_cycle;Max_cycle;Signal;HPM_P1;HPM_P2
2022/05/28 00:01:48;;;;;;;3.30;1.08;;;;;;;9.69;95.56;101979.56;5034766;28;20104;-73
2022/05/28 00:04:15;;;;;;;2.72;0.95;;;;;;;9.69;94.21;101978.72;5017170;28;20132;-73
2022/05/28 00:06:41;;;;;;;6.10;0.98;;;;;;;9.70;94.43;101983.97;5034895;28;20036;-72
2022/05/28 00:09:07;;;;;;;2.95;1.02;;;;;;;9.71;94.86;101982.19;5016787;28;20479;-73
2022/05/28 00:11:38;;;;;;;2.08;0.73;;;;;;;9.71;94.81;101972.50;5036282;28;20648;-73
2022/05/28 00:14:05;;;;;;;1.48;0.90;;;;;;;9.71;94.76;101983.06;5036814;28;20033;-73
2022/05/28 00:16:31;;;;;;;4.93;1.10;;;;;;;9.69;95.39;101979.56;5037896;28;20128;-73
2022/05/28 00:18:57;;;;;;;3.97;1.00;;;;;;;9.67;95.07;101986.69;5021397;28;20049;-73
2022/05/28 00:21:24;;;;;;;4.00;1.00;;;;;;;9.64;94.77;101984.97;5019890;28;20036;-72
2022/05/28 00:23:50;;;;;;;2.10;0.80;;;;;;;9.62;94.75;101983.28;5019939;28;20036;-73
2022/05/28 00:26:16;;;;;;;3.78;1.00;;;;;;;9.59;94.76;101975.44;5004432;28;20037;-73
2022/05/28 00:28:44;;;;;;;4.35;1.00;;;;;;;9.55;94.77;101982.56;5038147;28;20032;-73
2022/05/28 00:31:10;;;;;;;1.55;0.80;;;;;;;9.51;94.46;101979.13;5037758;28;20061;-73
2022/05/28 00:33:36;;;;;;;3.75;0.80;;;;;;;9.47;94.02;101985.38;5022495;28;20679;-73
2022/05/28 00:36:04;;;;;;;2.45;0.70;;;;;;;9.42;94.45;101981.09;5019813;28;20108;-73
2022/05/28 00:38:31;;;;;;;4.15;1.23;;;;;;;9.38;93.66;101981.16;4997669;28;20757;-73
2022/05/28 00:40:59;;;;;;;5.22;0.90;;;;;;;9.34;93.26;101979.50;5037302;28;20045;-76
2022/05/28 00:43:26;;;;;;;7.45;0.98;;;;;;;9.31;93.11;101979.53;5019859;28;20033;-73
2022/05/28 00:45:57;;;;;;;4.68;0.88;;;;;;;9.29;93.26;101991.06;5007618;28;20029;-73
2022/05/28 00:48:25;;;;;;;1.77;0.80;;;;;;;9.27;92.86;101984.94;5022026;28;20400;-75
2022/05/28 00:50:51;;;;;;;3.67;0.82;;;;;;;9.21;92.55;101984.16;5035897;28;20175;-74
2022/05/28 00:53:17;;;;;;;2.80;0.80;;;;;;;9.19;92.22;101990.38;5027084;28;20111;-73
2022/05/28 00:55:42;;;;;;;3.65;0.80;;;;;;;9.16;93.02;101993.09;5002428;28;20442;-74
2022/05/28 00:58:09;;;;;;;2.30;0.77;;;;;;;9.12;93.09;101991.41;5011523;28;20434;-74
2022/05/28 01:00:35;;;;;;;3.85;0.77;;;;;;;9.10;93.17;101996.75;5018454;28;20116;-73
2022/05/28 01:03:24;;;;;;;1.80;0.80;;;;;;;9.07;93.34;101997.69;5018907;28;20044;-74
2022/05/28 01:06:14;;;;;;;6.63;1.02;;;;;;;9.06;93.93;102001.19;5034873;28;20048;-74
2022/05/28 01:08:48;;;;;;;1.35;1.00;;;;;;;9.05;93.30;101994.19;5034964;28;20036;-73
2022/05/28 01:11:30;;;;;;;3.33;1.20;;;;;;;9.01;93.67;101997.81;5018895;28;20025;-74
2022/05/28 01:14:05;;;;;;;1.02;0.70;;;;;;;8.99;93.68;102004.00;5035400;28;20037;-74
2022/05/28 01:16:35;;;;;;;4.82;0.98;;;;;;;8.97;93.95;101996.13;5037026;28;20484;-74
2022/05/28 01:19:07;;;;;;;3.60;0.75;;;;;;;8.94;93.21;102001.47;5039102;28;20044;-73
2022/05/28 01:21:54;;;;;;;1.63;0.70;;;;;;;8.91;93.55;101994.47;5018758;28;20258;-73
2022/05/28 01:24:28;;;;;;;3.95;0.73;;;;;;;8.91;93.63;101997.13;5040141;28;20051;-74
2022/05/28 01:26:59;;;;;;;3.75;0.70;;;;;;;8.90;93.66;101995.38;5039114;28;20033;-73
2022/05/28 01:29:30;;;;;;;1.48;0.82;;;;;;;8.91;93.44;101990.94;5002762;28;20458;-73
2022/05/28 01:31:56;;;;;;;4.20;1.00;;;;;;;8.90;93.17;101995.38;5015879;28;20036;-72
2022/05/28 01:34:22;;;;;;;3.17;0.70;;;;;;;8.89;92.34;101996.25;5009441;28;20037;-72
2022/05/28 01:36:48;;;;;;;1.75;0.63;;;;;;;8.89;92.40;101998.03;5010696;28;20544;-73
2022/05/28 01:39:15;;;;;;;3.33;0.85;;;;;;;8.87;91.62;102000.72;5018776;28;20090;-73
2022/05/28 01:41:40;;;;;;;2.47;0.80;;;;;;;8.83;92.06;101997.25;4998716;28;20061;-73
2022/05/28 01:44:11;;;;;;;6.10;1.00;;;;;;;8.81;91.62;101996.44;5019229;28;20147;-73
2022/05/28 01:46:39;;;;;;;4.68;0.70;;;;;;;8.79;91.74;101992.06;5018042;28;20132;-73
2022/05/28 01:49:04;;;;;;;3.67;1.13;;;;;;;8.75;92.13;101995.66;5036388;28;20395;-74
2022/05/28 01:51:35;;;;;;;4.53;0.80;;;;;;;8.73;92.54;101997.47;5019269;28;20028;-73
2022/05/28 01:54:11;;;;;;;3.38;0.70;;;;;;;8.71;92.49;101992.22;5003550;28;20037;-73
2022/05/28 01:56:50;;;;;;;2.33;0.70;;;;;;;8.72;92.40;101996.59;5016905;28;20086;-73
2022/05/28 01:59:20;;;;;;;3.75;0.80;;;;;;;8.71;93.31;101996.63;5019785;28;21457;-73
2022/05/28 02:01:45;;;;;;;3.33;1.08;;;;;;;8.70;93.13;101993.13;5035247;28;20186;-72
2022/05/28 02:04:11;;;;;;;3.72;0.93;;;;;;;8.68;92.65;101994.94;5035585;28;20037;-73
2022/05/28 02:06:38;;;;;;;3.05;1.05;;;;;;;8.65;92.99;101989.69;5017968;28;20044;-73
2022/05/28 02:09:06;;;;;;;3.72;1.10;;;;;;;8.64;93.07;101994.13;5009037;28;20091;-73
2022/05/28 02:12:16;;;;;;;4.18;0.90;;;;;;;8.63;93.14;101992.38;5002044;28;20036;-73
2022/05/28 02:14:58;;;;;;;5.57;1.10;;;;;;;8.64;93.31;101993.22;4954224;28;20054;-73
2022/05/28 02:17:34;;;;;;;3.10;0.90;;;;;;;8.63;93.48;101986.22;4999492;28;20064;-73
2022/05/28 02:20:27;;;;;;;5.93;0.90;;;;;;;8.61;93.68;101993.31;5035315;28;20134;-73
2022/05/28 02:22:58;;;;;;;4.68;1.13;;;;;;;8.65;93.62;102000.25;5036206;28;20483;-73
2022/05/28 02:25:28;;;;;;;5.43;0.90;;;;;;;8.66;93.85;101986.16;5020172;28;20120;-73
2022/05/28 02:27:55;;;;;;;4.47;1.23;;;;;;;8.68;93.67;101989.66;5009727;28;20797;-73
2022/05/28 02:30:21;;;;;;;3.72;0.98;;;;;;;8.70;93.88;101990.47;5017526;28;20281;-73
2022/05/28 02:32:46;;;;;;;2.78;1.05;;;;;;;8.72;93.95;101990.44;5017276;28;20379;-73
2022/05/28 02:35:12;;;;;;;2.55;1.00;;;;;;;8.73;94.42;101979.88;5034620;28;20036;-73
2022/05/28 02:37:38;;;;;;;2.75;0.80;;;;;;;8.73;94.21;101995.72;5000249;28;20041;-73
2022/05/28 02:40:05;;;;;;;2.53;0.90;;;;;;;8.75;94.03;101985.97;5019196;28;20060;-73
2022/05/28 02:42:32;;;;;;;5.10;0.90;;;;;;;8.78;93.54;101987.69;5036976;28;20025;-73
2022/05/28 02:44:58;;;;;;;3.65;1.08;;;;;;;8.80;93.79;101984.13;5021626;28;20047;-73
2022/05/28 02:47:24;;;;;;;3.28;0.95;;;;;;;8.82;93.59;101992.00;5035217;28;20061;-74
2022/05/28 02:49:53;;;;;;;2.58;0.95;;;;;;;8.82;93.76;101986.72;5017764;28;20075;-74
2022/05/28 02:52:18;;;;;;;3.15;0.90;;;;;;;8.82;93.31;101982.31;5016023;28;20516;-74
2022/05/28 02:54:44;;;;;;;3.97;1.10;;;;;;;8.83;93.52;101986.69;5017643;28;20029;-74
2022/05/28 02:57:09;;;;;;;2.42;0.88;;;;;;;8.85;93.57;101985.78;5002071;28;20040;-74
2022/05/28 02:59:35;;;;;;;2.58;1.02;;;;;;;8.85;93.62;101988.44;5038503;28;20051;-74
2022/05/28 03:02:00;;;;;;;6.25;1.25;;;;;;;8.83;93.13;101986.69;5036505;28;20497;-74
2022/05/28 03:04:29;;;;;;;4.10;1.00;;;;;;;8.81;93.43;101982.34;5001819;28;20025;-73
2022/05/28 03:06:55;;;;;;;4.07;1.25;;;;;;;8.79;93.65;101989.44;4984184;28;20033;-74
2022/05/28 03:09:20;;;;;;;2.08;0.80;;;;;;;8.77;93.02;101991.25;5016783;28;20679;-74
2022/05/28 03:11:46;;;;;;;4.65;1.20;;;;;;;8.73;93.06;101993.06;5034245;28;20037;-74
2022/05/28 03:14:17;;;;;;;5.10;1.13;;;;;;;8.70;93.06;101987.84;5017591;28;20096;-74
2022/05/28 03:16:43;;;;;;;1.60;1.00;;;;;;;8.67;92.74;101983.47;5017797;28;20486;-74
2022/05/28 03:19:09;;;;;;;3.10;1.10;;;;;;;8.68;93.03;102000.19;5023134;28;20045;-73
2022/05/28 03:21:34;;;;;;;2.95;1.08;;;;;;;8.66;93.42;101992.31;5033450;28;20628;-72
2022/05/28 03:24:00;;;;;;;2.97;0.80;;;;;;;8.65;93.30;101990.56;5034268;28;20156;-72
2022/05/28 03:26:27;;;;;;;3.20;0.82;;;;;;;8.65;93.24;101990.56;5006948;28;20045;-72
2022/05/28 03:28:53;;;;;;;1.60;0.90;;;;;;;8.63;93.21;101997.66;5033632;28;20033;-72
2022/05/28 03:31:19;;;;;;;3.90;1.15;;;;;;;8.64;93.33;101995.88;5016717;28;20035;-72
2022/05/28 03:33:45;;;;;;;4.15;1.15;;;;;;;8.65;93.51;101992.31;5017142;28;20492;-72
2022/05/28 03:36:11;;;;;;;4.68;1.23;;;;;;;8.68;93.80;101994.94;4999469;28;20627;-72
2022/05/28 03:38:37;;;;;;;3.28;1.30;;;;;;;8.74;94.10;101992.16;5017193;28;20055;-72
2022/05/28 03:41:03;;;;;;;3.13;1.00;;;;;;;8.82;94.06;101999.91;5032658;28;20499;-73
2022/05/28 03:43:29;;;;;;;1.98;0.88;;;;;;;8.86;94.26;101993.69;5032471;28;20174;-72
2022/05/28 03:45:55;;;;;;;5.00;0.90;;;;;;;8.91;93.98;101993.59;5036296;28;20559;-72
2022/05/28 03:48:21;;;;;;;5.07;1.20;;;;;;;8.92;94.12;101987.41;5036271;28;20056;-72
2022/05/28 03:50:47;;;;;;;6.22;1.50;;;;;;;8.95;94.08;101997.94;5038810;28;20041;-72
2022/05/28 03:53:12;;;;;;;4.22;0.90;;;;;;;8.96;93.98;101994.38;5039047;28;20502;-72
2022/05/28 03:55:39;;;;;;;3.40;1.52;;;;;;;8.99;93.74;102004.00;5021561;28;20033;-73
2022/05/28 03:58:06;;;;;;;4.13;1.35;;;;;;;9.01;94.17;101997.81;5019580;28;20123;-72
2022/05/28 04:00:32;;;;;;;2.92;1.20;;;;;;;9.04;94.10;102003.00;5018162;28;20597;-72
2022/05/28 04:02:58;;;;;;;2.72;1.30;;;;;;;9.07;94.33;102007.38;5004925;28;20041;-72
2022/05/28 04:05:24;;;;;;;2.78;1.10;;;;;;;9.10;94.32;102008.16;5038101;28;20037;-72
2022/05/28 04:07:50;;;;;;;3.30;0.90;;;;;;;9.17;93.84;102008.03;5020754;28;20384;-72
2022/05/28 04:10:15;;;;;;;4.15;1.23;;;;;;;9.19;93.81;102004.47;5037901;28;20029;-72
2022/05/28 04:12:41;;;;;;;3.92;1.38;;;;;;;9.21;93.64;102010.59;5004718;28;20102;-72
2022/05/28 04:15:11;;;;;;;4.40;1.02;;;;;;;9.22;93.58;102009.69;5019599;28;20060;-73
2022/05/28 04:17:36;;;;;;;5.78;1.30;;;;;;;9.22;93.15;102004.38;5012785;28;20025;-73
2022/05/28 04:20:03;;;;;;;3.08;1.20;;;;;;;9.23;93.71;102015.84;5011619;28;20043;-73
2022/05/28 04:22:29;;;;;;;3.13;1.00;;;;;;;9.25;93.67;102008.75;5037256;28;20256;-73
2022/05/28 04:24:54;;;;;;;4.72;1.20;;;;;;;9.25;93.15;102024.59;5038167;28;20033;-73
2022/05/28 04:27:20;;;;;;;4.55;1.13;;;;;;;9.25;92.58;102014.03;5038351;28;20025;-74
2022/05/28 04:29:48;;;;;;;3.85;1.10;;;;;;;9.26;93.28;102022.84;5037667;28;20045;-73
2022/05/28 04:32:14;;;;;;;3.42;1.17;;;;;;;9.27;93.15;102030.75;5038223;28;20118;-73
2022/05/28 04:34:39;;;;;;;5.32;1.20;;;;;;;9.28;92.63;102031.59;5020117;28;20029;-73
2022/05/28 04:37:05;;;;;;;4.20;1.33;;;;;;;9.27;92.86;102030.75;5037483;28;20047;-73
2022/05/28 04:39:31;;;;;;;5.90;1.55;;;;;;;9.30;92.49;102040.34;5028251;28;20036;-74
2022/05/28 04:41:56;;;;;;;5.55;1.50;;;;;;;9.31;92.94;102037.69;5028797;28;20047;-73
2022/05/28 04:44:22;;;;;;;3.97;1.15;;;;;;;9.31;92.54;102034.19;5019486;28;20511;-74
2022/05/28 04:46:50;;;;;;;4.10;1.30;;;;;;;9.29;92.63;102034.22;5016302;28;20033;-73
2022/05/28 04:49:15;;;;;;;6.03;1.30;;;;;;;9.28;92.13;102031.59;5039388;28;20043;-73
2022/05/28 04:51:42;;;;;;;5.28;1.00;;;;;;;9.26;91.98;102036.91;5021130;28;20037;-73
2022/05/28 04:54:08;;;;;;;7.20;1.70;;;;;;;9.27;92.20;102038.69;5035889;28;20064;-74
2022/05/28 04:56:33;;;;;;;5.65;1.17;;;;;;;9.29;92.35;102046.53;5020781;28;20094;-74
2022/05/28 04:58:59;;;;;;;4.78;1.73;;;;;;;9.32;92.44;102036.78;5038293;28;20044;-73
2022/05/28 05:01:25;;;;;;;3.50;1.17;;;;;;;9.34;92.20;102035.00;5019508;28;20787;-74
2022/05/28 05:03:51;;;;;;;2.22;0.80;;;;;;;9.37;92.24;102039.31;4995224;28;20439;-73
2022/05/28 05:06:17;;;;;;;3.83;1.35;;;;;;;9.40;91.83;102031.34;5036973;28;20033;-73
2022/05/28 05:08:43;;;;;;;4.20;1.00;;;;;;;9.42;92.41;102031.31;4996832;28;20098;-74
2022/05/28 05:11:10;;;;;;;5.55;1.45;;;;;;;9.43;91.91;102031.25;5018930;28;20123;-73
2022/05/28 05:13:35;;;;;;;4.22;1.05;;;;;;;9.49;91.92;102035.56;5024252;28;20176;-74
2022/05/28 05:16:06;;;;;;;8.35;1.55;;;;;;;9.54;91.50;102036.34;5021737;28;20600;-73
2022/05/28 05:18:33;;;;;;;2.10;0.90;;;;;;;9.61;91.63;102043.22;5017898;28;20054;-73
2022/05/28 05:20:58;;;;;;;2.58;1.02;;;;;;;9.69;91.71;102031.63;5045579;28;20496;-73
2022/05/28 05:23:24;;;;;;;4.43;1.30;;;;;;;9.80;91.83;102039.31;5037165;28;20056;-73
2022/05/28 05:25:49;;;;;;;6.78;1.67;;;;;;;9.87;91.39;102036.44;5019155;28;20566;-72
2022/05/28 05:28:15;;;;;;;6.65;1.23;;;;;;;9.95;91.36;102043.34;5019021;28;20033;-73
2022/05/28 05:30:40;;;;;;;5.07;1.33;;;;;;;10.16;91.43;102045.50;5020288;28;20091;-73
2022/05/28 05:33:17;;;;;;;5.55;1.35;;;;;;;10.41;91.25;102044.84;5002904;28;20029;-74
2022/05/28 05:35:42;;;;;;;2.63;0.93;;;;;;;10.52;90.20;102044.59;5023238;28;20032;-73
2022/05/28 05:38:09;;;;;;;4.93;1.27;;;;;;;10.59;89.35;102053.28;5018624;28;20403;-73
2022/05/28 05:40:37;;;;;;;3.67;1.30;;;;;;;10.69;89.81;102061.84;5017666;28;20472;-73
2022/05/28 05:43:04;;;;;;;5.38;1.50;;;;;;;10.79;88.61;102057.19;5017526;28;20033;-74
2022/05/28 05:45:30;;;;;;;3.67;1.20;;;;;;;10.89;88.94;102063.09;5015763;28;20041;-73
2022/05/28 05:47:55;;;;;;;5.78;1.15;;;;;;;10.94;87.91;102051.44;4998868;28;20495;-73
2022/05/28 05:50:21;;;;;;;4.18;1.00;;;;;;;10.99;87.26;102068.09;5000946;28;20033;-74
2022/05/28 05:52:47;;;;;;;7.20;1.60;;;;;;;10.98;87.23;102069.03;5004532;28;20025;-74
2022/05/28 05:55:13;;;;;;;4.25;1.30;;;;;;;10.97;86.90;102066.41;5028370;28;20029;-75
2022/05/28 05:57:39;;;;;;;3.50;1.10;;;;;;;10.95;87.21;102069.09;5038227;28;20369;-74
2022/05/28 06:00:05;;;;;;;4.80;1.70;;;;;;;10.96;87.01;102060.22;5017569;28;20044;-74
2022/05/28 06:02:30;;;;;;;6.20;1.23;;;;;;;10.94;87.13;102071.78;5022787;28;20057;-74
2022/05/28 06:04:58;;;;;;;5.53;1.05;;;;;;;10.91;87.46;102072.75;5018826;28;20071;-73
2022/05/28 06:07:24;;;;;;;10.40;1.75;;;;;;;10.89;87.71;102074.53;5015605;28;20546;-75
2022/05/28 06:09:49;;;;;;;5.07;1.42;;;;;;;10.86;87.62;102072.84;5023245;28;20599;-74
2022/05/28 06:12:15;;;;;;;5.75;1.20;;;;;;;10.86;87.63;102082.59;5013655;28;20033;-74
2022/05/28 06:14:41;;;;;;;4.25;1.42;;;;;;;10.86;87.64;102083.44;5033628;28;20661;-72
2022/05/28 06:17:06;;;;;;;3.90;1.10;;;;;;;10.89;87.22;102086.94;5010774;28;20037;-76
2022/05/28 06:19:33;;;;;;;5.40;1.00;;;;;;;10.89;86.84;102085.16;5027662;28;20493;-75
2022/05/28 06:21:59;;;;;;;4.07;1.23;;;;;;;10.89;87.34;102076.34;5030999;28;20068;-76
2022/05/28 06:24:25;;;;;;;7.78;1.35;;;;;;;11.03;87.45;102081.25;5029380;28;20062;-76
2022/05/28 06:26:51;;;;;;;5.07;1.13;;;;;;;11.18;87.03;102086.16;5032969;28;20021;-76
2022/05/28 06:29:16;;;;;;;4.63;1.33;;;;;;;11.21;86.27;102080.75;4997246;28;21476;-77
2022/05/28 06:31:42;;;;;;;3.47;1.20;;;;;;;11.18;86.23;102088.78;5016247;28;20564;-77
2022/05/28 06:34:07;;;;;;;3.38;1.02;;;;;;;11.11;86.08;102085.44;5029254;28;20082;-76
2022/05/28 06:36:33;;;;;;;4.20;1.20;;;;;;;11.10;85.87;102090.78;5029670;28;20025;-77
2022/05/28 06:38:58;;;;;;;5.57;1.30;;;;;;;11.17;86.37;102087.03;5030912;28;20064;-75
2022/05/28 06:41:24;;;;;;;5.50;1.20;;;;;;;11.45;85.93;102083.63;5030477;28;20143;-76
2022/05/28 06:43:53;;;;;;;3.55;1.10;;;;;;;11.63;85.06;102086.63;5011965;28;20040;-76
2022/05/28 06:46:18;;;;;;;4.55;1.20;;;;;;;11.81;85.14;102091.38;5012513;28;20032;-76
2022/05/28 06:48:44;;;;;;;6.00;1.33;;;;;;;11.99;82.80;102083.72;5031099;28;20310;-77
2022/05/28 06:51:10;;;;;;;4.60;1.60;;;;;;;12.05;83.00;102088.88;5031910;28;20060;-76
2022/05/28 06:53:47;;;;;;;4.90;1.48;;;;;;;12.04;81.86;102091.59;5005617;28;20029;-74
2022/05/28 06:56:13;;;;;;;2.00;1.00;;;;;;;12.02;80.72;102083.66;4989513;28;20402;-75
2022/05/28 06:58:39;;;;;;;4.60;1.00;;;;;;;12.03;82.00;102080.09;5008411;28;20111;-74
2022/05/28 07:01:07;;;;;;;3.75;1.00;;;;;;;12.07;82.13;102087.06;5031373;28;20043;-76
2022/05/28 07:03:32;;;;;;;6.82;1.60;;;;;;;12.18;82.73;102084.06;5012014;28;20033;-76
2022/05/28 07:05:58;;;;;;;5.13;1.40;;;;;;;12.21;81.22;102099.88;5012538;28;20064;-74
2022/05/28 07:08:24;;;;;;;3.72;1.15;;;;;;;12.21;81.88;102085.75;5031295;28;20175;-75
2022/05/28 07:10:58;;;;;;;5.25;1.40;;;;;;;12.36;81.16;102087.00;5015397;28;20040;-76
2022/05/28 07:13:25;;;;;;;5.03;1.17;;;;;;;12.67;81.72;102095.75;5030856;28;20059;-76
2022/05/28 07:15:51;;;;;;;3.05;1.13;;;;;;;12.98;81.11;102089.38;5015121;28;21317;-74
2022/05/28 07:18:17;;;;;;;6.07;1.83;;;;;;;13.13;79.74;102088.78;5030675;28;20056;-76
2022/05/28 07:20:49;;;;;;;4.72;1.13;;;;;;;13.20;79.11;102092.13;5023217;28;20320;-75
2022/05/28 07:23:36;;;;;;;4.72;1.33;;;;;;;13.35;79.40;102088.00;5014563;28;20165;-74
2022/05/28 07:26:04;;;;;;;8.70;1.30;;;;;;;13.34;78.78;102086.25;5036330;28;20033;-75
2022/05/28 07:28:33;;;;;;;1.67;1.10;;;;;;;13.22;79.04;102092.91;5037154;28;20110;-74
2022/05/28 07:31:05;;;;;;;5.15;0.90;;;;;;;13.07;78.69;102096.16;5019433;28;20095;-74
2022/05/28 07:33:33;;;;;;;7.38;1.45;;;;;;;13.16;79.35;102098.47;5022068;28;20039;-74
2022/05/28 07:35:59;;;;;;;3.97;1.13;;;;;;;13.20;78.59;102099.22;5018635;28;20039;-75
2022/05/28 07:38:26;;;;;;;3.42;1.13;;;;;;;13.21;76.70;102085.88;5033859;28;20036;-74
2022/05/28 07:40:55;;;;;;;2.60;0.93;;;;;;;13.42;77.65;102092.16;5019390;28;20037;-74
2022/05/28 07:43:22;;;;;;;2.35;1.02;;;;;;;13.69;77.48;102097.38;5031386;28;20037;-75
2022/05/28 07:45:48;;;;;;;4.45;1.10;;;;;;;13.85;77.86;102080.84;5037011;28;20119;-74
2022/05/28 07:48:15;;;;;;;10.60;1.45;;;;;;;13.99;73.92;102082.94;5023539;28;20495;-74
2022/05/28 07:50:41;;;;;;;4.78;1.20;;;;;;;13.92;76.05;102082.31;5051137;28;20029;-74
2022/05/28 07:53:12;;;;;;;4.50;1.15;;;;;;;13.95;76.62;102094.66;5052874;28;20061;-73
2022/05/28 07:55:38;;;;;;;5.03;1.30;;;;;;;14.12;75.88;102099.31;5032225;28;20040;-75
2022/05/28 07:58:10;;;;;;;3.50;1.17;;;;;;;14.39;74.90;102096.44;5040897;28;20028;-74
2022/05/28 08:01:07;;;;;;;2.88;1.00;;;;;;;14.39;73.35;102096.44;5044648;28;21318;-75
2022/05/28 08:03:34;;;;;;;5.05;1.25;;;;;;;14.01;72.28;102107.72;5044688;28;20028;-74
2022/05/28 08:05:59;;;;;;;5.43;1.33;;;;;;;13.83;74.29;102101.31;5042116;28;20041;-75
2022/05/28 08:08:34;;;;;;;4.53;1.20;;;;;;;13.90;72.04;102097.47;5046572;28;20617;-76
2022/05/28 08:11:20;;;;;;;2.92;1.23;;;;;;;13.97;72.48;102101.66;5053121;28;20037;-76
2022/05/28 08:13:45;;;;;;;4.07;1.00;;;;;;;13.90;74.09;102102.78;5022534;28;20052;-75
2022/05/28 08:16:11;;;;;;;5.78;1.45;;;;;;;13.89;74.39;102098.41;5046421;28;20069;-75
2022/05/28 08:18:39;;;;;;;5.18;1.10;;;;;;;13.96;74.93;102105.22;5023284;28;20060;-76
2022/05/28 08:23:50;;;;;;;3.22;1.23;;;;;;;14.17;75.20;102107.94;5030860;28;20064;-75
2022/05/28 08:26:19;;;;;;;2.88;1.10;;;;;;;14.35;74.06;102105.47;5042346;28;20127;-77
2022/05/28 08:28:45;;;;;;;6.32;1.63;;;;;;;14.54;74.29;102110.88;5040805;28;20037;-74
2022/05/28 08:31:11;;;;;;;3.10;1.17;;;;;;;14.84;73.06;102109.69;5040998;28;20032;-75
2022/05/28 08:33:37;;;;;;;6.65;1.02;;;;;;;14.95;70.61;102107.41;5019211;28;20033;-75
2022/05/28 08:36:03;;;;;;;3.50;0.98;;;;;;;15.00;68.04;102094.75;5041511;28;20419;-75
2022/05/28 08:38:29;;;;;;;5.65;1.35;;;;;;;14.80;69.22;102101.81;5020027;28;20102;-75
2022/05/28 08:41:00;;;;;;;6.47;1.45;;;;;;;14.40;68.78;102111.47;5019253;28;20483;-76
2022/05/28 08:43:31;;;;;;;6.00;1.40;;;;;;;14.28;71.39;102114.66;5003911;28;20673;-75
2022/05/28 08:46:00;;;;;;;7.38;1.30;;;;;;;14.37;71.49;102108.94;4999838;28;20041;-75
2022/05/28 08:48:46;;;;;;;2.85;1.00;;;;;;;14.59;70.61;102118.72;5020313;28;20089;-76
2022/05/28 08:51:22;;;;;;;5.53;1.20;;;;;;;14.79;71.24;102113.44;5038385;28;20062;-73
2022/05/28 08:53:55;;;;;;;4.30;1.02;;;;;;;14.73;71.57;102120.78;5036119;28;20553;-75
2022/05/28 08:56:24;;;;;;;3.03;1.10;;;;;;;14.49;69.94;102118.22;5040174;28;20029;-76
2022/05/28 08:59:18;;;;;;;5.03;1.10;;;;;;;14.53;69.08;102120.69;5020030;28;20071;-76
2022/05/28 09:01:44;;;;;;;6.55;1.23;;;;;;;14.53;71.66;102117.16;5018944;28;20045;-76
2022/05/28 09:04:24;;;;;;;4.63;1.17;;;;;;;14.39;69.08;102123.06;5038243;28;20407;-76
2022/05/28 09:06:53;;;;;;;6.32;1.13;;;;;;;14.21;70.66;102125.53;5038605;28;20152;-76
2022/05/28 09:09:29;;;;;;;2.58;1.02;;;;;;;14.44;70.10;102120.22;5039590;28;20028;-76
2022/05/28 09:12:05;;;;;;;4.38;1.20;;;;;;;14.76;69.52;102121.53;5038784;28;20055;-76
2022/05/28 09:14:36;;;;;;;5.97;1.40;;;;;;;14.91;68.70;102120.03;5044803;28;20104;-75
2022/05/28 09:17:04;;;;;;;4.03;1.27;;;;;;;14.93;70.09;102122.63;5041091;28;20093;-76
2022/05/28 09:19:33;;;;;;;4.13;1.10;;;;;;;15.14;69.64;102118.13;5040665;28;20037;-76
2022/05/28 09:21:58;;;;;;;4.55;1.00;;;;;;;15.36;70.50;102122.50;5029186;28;20068;-76
2022/05/28 09:24:27;;;;;;;5.38;1.17;;;;;;;15.19;68.43;102129.47;5022301;28;20060;-77
2022/05/28 09:27:20;;;;;;;4.50;1.15;;;;;;;14.85;66.69;102127.41;5019378;28;20467;-76
2022/05/28 09:30:04;;;;;;;;;;;;;;;14.65;66.30;102121.09;5012591;28;20055;-75
2022/05/28 09:32:42;;;;;;;2.83;0.90;;;;;;;14.79;67.43;102125.88;5035237;28;20509;-76
2022/05/28 09:35:30;;;;;;;3.42;1.00;;;;;;;15.08;66.43;102123.72;5030388;28;20288;-75
2022/05/28 09:38:00;;;;;;;6.20;1.33;;;;;;;15.24;66.50;102125.75;5038931;28;20590;-76
2022/05/28 09:40:43;;;;;;;2.50;1.30;;;;;;;15.43;65.91;102126.59;5036885;28;20652;-76
2022/05/28 09:43:32;;;;;;;4.55;1.35;;;;;;;15.52;64.57;102119.13;5034908;28;20048;-76
2022/05/28 09:46:09;;;;;;;4.85;1.30;;;;;;;15.68;66.13;102130.81;5022565;28;20029;-76
2022/05/28 09:48:35;;;;;;;4.38;1.30;;;;;;;15.59;65.68;102121.44;5036189;28;20053;-76
2022/05/28 09:51:03;;;;;;;4.57;1.10;;;;;;;15.49;65.97;102120.16;5019793;28;20112;-75
2022/05/28 09:56:50;;;;;;;4.70;1.20;;;;;;;15.18;64.78;102134.84;5020414;28;20062;-75
2022/05/28 09:59:24;;;;;;;2.88;0.73;;;;;;;14.76;65.07;102137.53;4986729;28;20544;-76
2022/05/28 10:01:55;;;;;;;3.63;1.15;;;;;;;14.43;66.00;102156.63;5013079;28;20139;-75
2022/05/28 10:04:31;;;;;;;4.30;1.03;;;;;;;14.23;67.71;102138.81;5038805;28;20120;-76
2022/05/28 10:07:02;;;;;;;2.75;1.15;;;;;;;14.15;67.27;102133.78;5017723;28;20116;-75
2022/05/28 10:09:47;;;;;;;3.45;1.52;;;;;;;14.18;67.68;102135.47;5022567;28;20511;-78
2022/05/28 10:12:16;;;;;;;8.27;1.20;;;;;;;14.17;68.14;102129.25;5020440;28;20036;-77
2022/05/28 10:14:58;;;;;;;5.13;1.58;;;;;;;14.10;67.05;102138.41;5025042;28;20033;-76
2022/05/28 10:17:27;;;;;;;6.03;1.15;;;;;;;13.86;67.86;102135.81;5019021;28;20044;-76
2022/05/28 10:19:54;;;;;;;4.47;1.10;;;;;;;13.72;68.71;102138.97;5031142;28;21261;-75
2022/05/28 10:22:21;;;;;;;3.58;1.33;;;;;;;13.70;68.63;102140.84;5021631;28;20612;-75
2022/05/28 10:24:50;;;;;;;5.82;1.40;;;;;;;13.73;68.90;102132.72;5004376;28;20045;-76
2022/05/28 10:27:38;;;;;;;4.07;1.55;;;;;;;14.10;68.47;102120.66;5014461;28;20033;-75
2022/05/28 10:30:21;;;;;;;4.03;1.65;;;;;;;14.28;67.84;102133.28;5032611;28;20160;-76
2022/05/28 10:32:49;;;;;;;3.97;1.33;;;;;;;14.14;67.43;102145.38;5030265;28;20029;-75
2022/05/28 10:35:21;;;;;;;6.15;1.20;;;;;;;13.96;66.67;102144.31;5030748;28;20033;-76
2022/05/28 10:37:46;;;;;;;3.63;0.90;;;;;;;13.96;68.22;102134.50;5027960;28;20045;-80
2022/05/28 10:40:15;;;;;;;3.92;0.93;;;;;;;14.09;67.77;102134.91;5012472;28;20583;-75
2022/05/28 10:42:41;;;;;;;5.20;1.55;;;;;;;14.14;67.71;102145.38;5030602;28;20120;-75
2022/05/28 10:45:08;;;;;;;2.70;0.90;;;;;;;14.30;67.21;102134.09;5016035;28;21258;-75
2022/05/28 10:47:54;;;;;;;4.07;1.13;;;;;;;14.63;65.52;102137.16;5013299;28;20032;-75
2022/05/28 10:50:48;;;;;;;2.90;1.08;;;;;;;14.88;64.95;102124.63;5002028;28;20048;-76
2022/05/28 10:53:41;;;;;;;3.17;1.23;;;;;;;15.15;63.58;102125.19;5035103;28;20736;-77
2022/05/28 10:56:26;;;;;;;5.25;1.30;;;;;;;15.11;63.34;102125.41;5031022;28;20044;-76
2022/05/28 10:58:51;;;;;;;6.50;1.30;;;;;;;14.88;65.28;102124.63;5032139;28;20114;-77
2022/05/28 11:01:32;;;;;;;4.05;1.05;;;;;;;14.73;64.03;102120.78;5014409;28;20057;-77
2022/05/28 11:04:07;;;;;;;6.57;1.35;;;;;;;14.79;65.69;102120.53;5031949;28;20041;-77
2022/05/28 11:07:03;;;;;;;5.25;0.98;;;;;;;14.86;64.60;102130.00;5031724;28;20048;-76
2022/05/28 11:09:38;;;;;;;3.55;0.90;;;;;;;14.67;65.16;102124.56;5028554;28;20043;-75
2022/05/28 11:12:25;;;;;;;3.88;1.15;;;;;;;14.32;65.00;102127.78;5012645;28;20363;-75
2022/05/28 11:15:22;;;;;;;6.00;1.15;;;;;;;14.15;65.99;102124.94;5019631;28;20025;-76
2022/05/28 11:18:17;;;;;;;2.90;1.10;;;;;;;14.08;65.91;102142.94;5011943;28;20075;-75
2022/05/28 11:20:54;;;;;;;2.05;0.93;;;;;;;14.07;67.08;102128.78;5028387;28;20051;-76
2022/05/28 11:23:28;;;;;;;6.95;1.13;;;;;;;14.16;65.71;102137.31;5030954;28;20428;-77
2022/05/28 11:26:16;;;;;;;3.03;1.15;;;;;;;13.94;66.07;102136.38;4998886;28;21682;-76
2022/05/28 11:29:09;;;;;;;3.50;1.13;;;;;;;13.66;67.05;102139.22;4999723;28;20037;-71
2022/05/28 11:31:41;;;;;;;;;;;;;;;13.46;68.36;102147.97;5011450;28;20159;-76
2022/05/28 11:34:21;;;;;;;3.55;0.93;;;;;;;13.36;68.87;102139.41;5028452;28;19925;-77
2022/05/28 11:36:56;;;;;;;2.90;1.23;;;;;;;13.32;69.17;102151.97;5006625;28;20056;-74
2022/05/28 11:39:57;;;;;;;4.68;0.98;;;;;;;13.18;69.82;102145.34;5003853;28;21559;-76
2022/05/28 11:42:38;;;;;;;2.80;1.30;;;;;;;12.92;71.33;102158.69;5029942;28;20532;-74
2022/05/28 11:45:12;;;;;;;6.22;1.25;;;;;;;12.65;73.02;102154.25;5014264;28;20541;-76
2022/05/28 11:47:54;;;;;;;4.35;0.82;;;;;;;12.54;73.75;102146.66;5029636;28;20238;-73
2022/05/28 11:53:23;;;;;;;3.17;1.52;;;;;;;12.64;73.82;102133.91;5019900;28;20047;-74